SAVT/REL METAR and TAF weather

Enter ICAO airport designator
Station Type Date Time Source
SAVT METAR 2020/09/18 20:40 UTC NOAA

SAVT 182040Z 14015KT 9999 GR BKN025 SCT035 10/M02 Q1016


Station Type Date Time Source
SAVT Decoded METAR 2020/09/18 20:40 UTC NOAA

Trelew Aerodrome, Argentina (SAVT) 43-12S 065-16W 43M
Sep 18, 2020 - 04:40 PM EDT / 2020.09.18 2040 UTC
Wind: from the SE (140 degrees) at 17 MPH (15 KT):0
Visibility: greater than 7 mile(s):0
Sky conditions: mostly cloudy
Weather: hail
Temperature: 50 F (10 C)
Dew Point: 28 F (-2 C)
Relative Humidity: 42%
Pressure (altimeter): 30.00 in. Hg (1016 hPa)
ob: SAVT 182040Z 14015KT 9999 GR BKN025 SCT035 10/M02 Q1016
cycle: 20

Station Type Date Time Source
SAVT TAF 2019/04/29 08:53 UTC NOAA

TAF
AMD SAVT 290800Z 2908/3006 27025G40KT 9999 SCT020 BKN035 TX16/2919Z TN07/3006Z
TEMPO 2911/2914 7000 -SHRA OVC020 SCT030
BECMG 3002/3004 25015KT

Example: see airport list